createdAt,value
2018-07-26T00:00:12.520Z,20.20
2018-07-26T00:02:40.418Z,20.10
2018-07-26T00:05:08.084Z,20.20
2018-07-26T00:07:36.110Z,20.20
2018-07-26T00:10:05.180Z,20.20
2018-07-26T00:12:32.785Z,20.30
2018-07-26T00:17:34.803Z,20.20
2018-07-26T00:20:02.372Z,20.00
2018-07-26T00:22:29.997Z,20.00
2018-07-26T00:24:57.691Z,20.00
2018-07-26T00:27:25.301Z,20.00
2018-07-26T00:29:52.947Z,20.00
2018-07-26T00:32:20.552Z,19.90
2018-07-26T00:34:48.177Z,19.90
2018-07-26T00:37:15.765Z,19.90
2018-07-26T00:39:43.348Z,19.90
2018-07-26T00:42:10.903Z,19.90
2018-07-26T00:44:38.500Z,19.90
2018-07-26T00:47:06.076Z,19.90
2018-07-26T00:49:33.670Z,19.90
2018-07-26T00:52:01.274Z,19.90
2018-07-26T00:54:29.189Z,19.80
2018-07-26T00:56:56.773Z,19.80
2018-07-26T01:01:59.483Z,19.80
2018-07-26T01:04:27.108Z,19.70
2018-07-26T01:06:54.685Z,19.70
2018-07-26T01:09:22.270Z,19.70
2018-07-26T01:11:50.553Z,19.70
2018-07-26T01:14:18.170Z,19.60
2018-07-26T01:16:45.836Z,19.60
2018-07-26T01:19:13.350Z,19.50
2018-07-26T01:21:40.946Z,19.50
2018-07-26T01:24:08.594Z,19.50
2018-07-26T01:26:36.225Z,19.50
2018-07-26T01:29:03.883Z,19.50
2018-07-26T01:31:31.540Z,19.50
2018-07-26T01:33:59.185Z,19.50
2018-07-26T01:36:26.793Z,19.50
2018-07-26T01:41:22.075Z,19.50
2018-07-26T01:44:08.009Z,19.50
2018-07-26T01:46:35.667Z,19.50
2018-07-26T01:49:03.299Z,19.50
2018-07-26T01:51:30.960Z,19.40
2018-07-26T01:53:58.597Z,19.30
2018-07-26T01:56:26.267Z,19.30
2018-07-26T01:58:53.949Z,19.30
2018-07-26T02:01:21.553Z,19.30
2018-07-26T02:03:49.202Z,19.20
2018-07-26T02:06:16.801Z,19.20
2018-07-26T02:08:44.415Z,19.20
2018-07-26T02:11:12.114Z,19.10
2018-07-26T02:13:39.743Z,19.10
2018-07-26T02:16:07.403Z,19.10
2018-07-26T02:18:35.033Z,19.10
2018-07-26T02:21:02.665Z,19.20
2018-07-26T02:23:30.360Z,19.20
2018-07-26T02:25:57.953Z,19.20
2018-07-26T02:28:25.556Z,19.20
2018-07-26T02:30:53.236Z,19.20
2018-07-26T02:33:20.908Z,19.20
2018-07-26T02:35:48.553Z,19.20
2018-07-26T02:38:16.210Z,19.10
2018-07-26T02:40:43.789Z,19.20
2018-07-26T02:43:11.780Z,19.20
2018-07-26T02:45:39.362Z,19.10
2018-07-26T02:48:07.258Z,19.00
2018-07-26T02:50:34.950Z,18.90
2018-07-26T02:53:02.539Z,18.90
2018-07-26T02:55:30.217Z,18.90
2018-07-26T02:57:58.076Z,18.80
2018-07-26T03:00:25.681Z,18.80
2018-07-26T03:02:53.357Z,18.70
2018-07-26T03:05:20.972Z,18.70
2018-07-26T03:07:48.605Z,18.70
2018-07-26T03:10:16.218Z,18.70
2018-07-26T03:12:44.103Z,18.60
2018-07-26T03:15:11.790Z,18.60
2018-07-26T03:17:39.436Z,18.60
2018-07-26T03:20:07.068Z,18.70
2018-07-26T03:22:34.638Z,18.80
2018-07-26T03:25:02.268Z,18.70
2018-07-26T03:27:29.850Z,18.80
2018-07-26T03:32:27.056Z,18.70
2018-07-26T03:34:55.222Z,18.60
2018-07-26T03:37:22.820Z,18.70
2018-07-26T03:39:50.358Z,18.70
2018-07-26T03:42:17.972Z,18.70
2018-07-26T03:47:13.312Z,18.70
2018-07-26T03:49:40.958Z,18.70
2018-07-26T03:54:36.258Z,18.80
2018-07-26T03:57:04.144Z,18.90
2018-07-26T03:59:31.747Z,19.00
2018-07-26T04:01:59.407Z,19.10
2018-07-26T04:04:28.003Z,19.00
2018-07-26T04:06:55.657Z,19.00
2018-07-26T04:09:23.368Z,19.00
2018-07-26T04:14:18.657Z,19.10
2018-07-26T04:16:46.185Z,19.20
2018-07-26T04:19:15.503Z,19.30
2018-07-26T04:21:43.053Z,19.40
2018-07-26T04:24:10.642Z,19.40
2018-07-26T04:26:38.251Z,19.50
2018-07-26T04:29:06.006Z,19.60
2018-07-26T04:31:34.007Z,19.80
2018-07-26T04:34:01.661Z,19.90
2018-07-26T04:36:29.337Z,20.00
2018-07-26T04:38:56.945Z,20.10
2018-07-26T04:41:24.537Z,20.10
2018-07-26T04:43:52.189Z,20.10
2018-07-26T04:46:19.817Z,20.30
2018-07-26T04:48:47.499Z,20.40
2018-07-26T04:51:15.119Z,20.50
2018-07-26T04:53:42.729Z,20.60
2018-07-26T04:56:10.396Z,20.80
2018-07-26T04:58:38.035Z,20.70
2018-07-26T05:01:05.704Z,20.90
2018-07-26T05:03:33.305Z,21.10
2018-07-26T05:06:00.919Z,21.10
2018-07-26T05:08:28.549Z,21.10
2018-07-26T05:10:56.158Z,21.30
2018-07-26T05:13:23.715Z,21.30
2018-07-26T05:15:51.336Z,21.50
2018-07-26T05:18:18.980Z,21.70
2018-07-26T05:20:46.632Z,21.90
2018-07-26T05:23:14.269Z,22.00
2018-07-26T05:25:41.853Z,22.40
2018-07-26T05:28:09.428Z,22.50
2018-07-26T05:30:37.060Z,22.60
2018-07-26T05:33:04.911Z,22.80
2018-07-26T05:35:33.232Z,23.10
2018-07-26T05:38:00.878Z,23.20
2018-07-26T05:40:28.513Z,23.20
2018-07-26T05:42:56.231Z,23.30
2018-07-26T05:45:24.058Z,23.30
2018-07-26T05:47:51.639Z,23.40
2018-07-26T05:50:19.265Z,23.30
2018-07-26T05:52:46.894Z,22.90
2018-07-26T05:55:14.599Z,23.40
2018-07-26T05:57:43.079Z,23.80
2018-07-26T06:00:13.121Z,24.10
2018-07-26T06:02:41.200Z,24.10
2018-07-26T06:05:10.110Z,24.20
2018-07-26T06:07:37.820Z,24.20
2018-07-26T06:10:06.651Z,24.50
2018-07-26T06:12:35.119Z,24.50
2018-07-26T06:15:03.803Z,24.90
2018-07-26T06:17:31.409Z,25.10
2018-07-26T06:19:58.957Z,25.00
2018-07-26T06:22:26.589Z,25.30
2018-07-26T06:24:54.258Z,25.30
2018-07-26T06:27:21.945Z,25.50
2018-07-26T06:29:49.559Z,25.60
2018-07-26T06:32:17.180Z,25.10
2018-07-26T06:34:44.841Z,25.00
2018-07-26T06:37:12.473Z,25.30
2018-07-26T06:39:40.033Z,25.40
2018-07-26T06:42:09.224Z,25.50
2018-07-26T06:44:36.880Z,25.80
2018-07-26T06:47:05.250Z,26.10
2018-07-26T06:49:32.816Z,26.30
2018-07-26T06:52:01.134Z,25.90
2018-07-26T06:54:28.888Z,26.10
2018-07-26T06:56:56.526Z,26.30
2018-07-26T06:59:24.132Z,26.50
2018-07-26T07:01:51.772Z,26.70
2018-07-26T07:04:19.469Z,26.30
2018-07-26T07:06:47.086Z,26.10
2018-07-26T07:09:14.794Z,26.80
2018-07-26T07:11:42.445Z,26.70
2018-07-26T07:14:10.279Z,26.70
2018-07-26T07:16:37.948Z,26.70
2018-07-26T07:19:05.717Z,27.10
2018-07-26T07:21:33.485Z,27.10
2018-07-26T07:24:01.254Z,27.30
2018-07-26T07:26:28.961Z,27.60
2018-07-26T07:31:24.451Z,27.50
2018-07-26T07:33:52.163Z,27.60
2018-07-26T07:36:19.841Z,27.80
2018-07-26T07:38:47.550Z,27.90
2018-07-26T07:41:15.259Z,27.80
2018-07-26T07:43:42.889Z,28.00
2018-07-26T07:46:10.624Z,27.80
2018-07-26T07:48:38.274Z,28.20
2018-07-26T07:51:06.039Z,28.10
2018-07-26T07:53:33.775Z,28.20
2018-07-26T07:56:01.693Z,28.10
2018-07-26T07:58:29.386Z,28.10
2018-07-26T08:00:57.102Z,27.90
2018-07-26T08:03:25.066Z,27.80
2018-07-26T08:05:53.024Z,28.00
2018-07-26T08:08:20.744Z,28.20
2018-07-26T08:10:48.566Z,28.20
2018-07-26T08:13:16.290Z,28.40
2018-07-26T08:15:43.949Z,28.60
2018-07-26T08:18:11.739Z,28.60
2018-07-26T08:20:39.469Z,28.60
2018-07-26T08:23:07.424Z,28.50
2018-07-26T08:25:35.364Z,28.80
2018-07-26T08:28:03.038Z,29.00
2018-07-26T08:30:30.853Z,28.90
2018-07-26T08:32:58.619Z,29.10
2018-07-26T08:35:26.314Z,29.10
2018-07-26T08:37:54.020Z,29.30
2018-07-26T08:40:21.899Z,29.20
2018-07-26T08:45:17.444Z,28.50
2018-07-26T08:47:45.375Z,28.40
2018-07-26T08:50:13.211Z,28.90
2018-07-26T08:52:40.899Z,29.20
2018-07-26T08:55:08.643Z,29.30
2018-07-26T08:57:36.412Z,29.30
2018-07-26T09:00:05.439Z,28.70
2018-07-26T09:02:33.154Z,28.70
2018-07-26T09:05:00.785Z,29.20
2018-07-26T09:07:29.203Z,29.20
2018-07-26T09:09:56.991Z,29.40
2018-07-26T09:12:24.832Z,29.70
2018-07-26T09:14:52.506Z,29.60
2018-07-26T09:17:20.342Z,29.50
2018-07-26T09:19:47.968Z,29.70
2018-07-26T09:22:15.620Z,29.90
2018-07-26T09:24:43.348Z,30.00
2018-07-26T09:27:12.408Z,30.20
2018-07-26T09:29:40.592Z,30.30
2018-07-26T09:32:08.182Z,30.20
2018-07-26T09:34:35.970Z,30.10
2018-07-26T09:37:03.700Z,30.00
2018-07-26T09:39:31.471Z,30.40
2018-07-26T09:41:59.197Z,30.70
2018-07-26T09:44:26.914Z,30.80
2018-07-26T09:46:54.644Z,31.10
2018-07-26T09:49:22.339Z,31.30
2018-07-26T09:51:49.999Z,31.30
2018-07-26T09:54:17.666Z,31.50
2018-07-26T09:56:45.329Z,31.70
2018-07-26T09:59:13.010Z,31.60
2018-07-26T10:01:41.149Z,31.50
2018-07-26T10:04:09.383Z,31.80
2018-07-26T10:06:37.169Z,31.80
2018-07-26T10:11:36.350Z,31.70
2018-07-26T10:14:04.396Z,31.80
2018-07-26T10:16:32.041Z,32.00
2018-07-26T10:18:59.756Z,32.10
2018-07-26T10:21:27.458Z,31.80
2018-07-26T10:26:23.113Z,32.50
2018-07-26T10:28:50.902Z,32.30
2018-07-26T10:31:18.563Z,32.10
2018-07-26T10:33:46.433Z,31.90
2018-07-26T10:36:14.197Z,31.60
2018-07-26T10:38:41.945Z,31.60
2018-07-26T10:41:09.713Z,32.00
2018-07-26T10:43:37.414Z,32.30
2018-07-26T10:46:05.250Z,32.20
2018-07-26T10:48:32.926Z,32.00
2018-07-26T10:51:00.786Z,32.20
2018-07-26T10:53:28.441Z,32.30
2018-07-26T10:55:56.110Z,32.10
2018-07-26T10:58:23.787Z,32.30
2018-07-26T11:00:51.688Z,32.30
2018-07-26T11:05:47.482Z,33.00
2018-07-26T11:08:15.930Z,33.10
2018-07-26T11:10:43.564Z,33.20
2018-07-26T11:13:11.338Z,33.00
2018-07-26T11:15:39.068Z,32.10
2018-07-26T11:18:06.671Z,32.30
2018-07-26T11:20:34.274Z,32.30
2018-07-26T11:23:01.865Z,32.40
2018-07-26T11:25:29.562Z,32.40
2018-07-26T11:27:57.249Z,32.00
2018-07-26T11:30:24.967Z,32.40
2018-07-26T11:32:54.501Z,32.60
2018-07-26T11:35:22.295Z,32.50
2018-07-26T11:37:49.931Z,32.30
2018-07-26T11:40:17.511Z,32.20
2018-07-26T11:42:45.616Z,32.20
2018-07-26T11:45:13.219Z,32.30
2018-07-26T11:47:40.841Z,32.30
2018-07-26T11:50:09.838Z,32.30
2018-07-26T11:52:37.450Z,32.40
2018-07-26T11:55:05.217Z,32.60
2018-07-26T11:57:32.872Z,32.80
2018-07-26T12:00:00.893Z,33.00
2018-07-26T12:02:28.567Z,33.10
2018-07-26T12:04:56.169Z,33.30
2018-07-26T12:07:24.262Z,33.50
2018-07-26T12:09:51.907Z,33.70
2018-07-26T12:12:19.529Z,34.10
2018-07-26T12:17:14.808Z,34.60
2018-07-26T12:19:42.501Z,34.60
2018-07-26T12:22:10.031Z,34.80
2018-07-26T12:24:37.650Z,34.80
2018-07-26T12:29:32.973Z,35.10
2018-07-26T12:32:00.761Z,35.50
2018-07-26T12:34:28.413Z,35.50
2018-07-26T12:36:56.373Z,35.60
2018-07-26T12:39:24.094Z,35.50
2018-07-26T12:41:51.707Z,35.60
2018-07-26T12:44:19.293Z,35.80
2018-07-26T12:46:47.078Z,36.20
2018-07-26T12:49:14.679Z,36.40
2018-07-26T12:51:42.277Z,36.70
2018-07-26T12:54:09.901Z,36.80
2018-07-26T12:56:37.553Z,36.80
2018-07-26T12:59:05.255Z,37.00
2018-07-26T13:01:33.013Z,36.90
2018-07-26T13:04:00.814Z,36.60
2018-07-26T13:06:28.492Z,36.20
2018-07-26T13:08:56.122Z,35.80
2018-07-26T13:11:23.792Z,35.70
2018-07-26T13:13:51.516Z,35.80
2018-07-26T13:16:19.294Z,35.70
2018-07-26T13:18:46.982Z,35.50
2018-07-26T13:21:14.735Z,35.10
2018-07-26T13:23:42.378Z,34.80
2018-07-26T13:26:10.354Z,34.40
2018-07-26T13:28:37.916Z,34.50
2018-07-26T13:31:06.049Z,34.80
2018-07-26T13:33:33.701Z,35.20
2018-07-26T13:36:01.308Z,35.60
2018-07-26T13:38:28.967Z,36.30
2018-07-26T13:40:56.512Z,36.80
2018-07-26T13:43:24.153Z,37.00
2018-07-26T13:45:51.729Z,37.30
2018-07-26T13:50:47.065Z,37.50
2018-07-26T13:53:14.800Z,37.50
2018-07-26T13:55:42.500Z,37.20
2018-07-26T13:58:10.267Z,36.70
2018-07-26T14:00:38.010Z,36.20
2018-07-26T14:05:33.586Z,35.10
2018-07-26T14:08:01.325Z,35.20
2018-07-26T14:10:29.260Z,35.60
2018-07-26T14:15:31.735Z,36.70
2018-07-26T14:17:59.691Z,37.30
2018-07-26T14:20:27.495Z,37.80
2018-07-26T14:22:55.221Z,38.40
2018-07-26T14:25:22.974Z,38.70
2018-07-26T14:27:50.843Z,39.10
2018-07-26T14:30:18.549Z,39.30
2018-07-26T14:32:46.261Z,39.70
2018-07-26T14:35:14.039Z,39.80
2018-07-26T14:37:41.832Z,39.70
2018-07-26T14:40:09.573Z,39.70
2018-07-26T14:42:37.421Z,39.20
2018-07-26T14:45:05.523Z,38.50
2018-07-26T14:47:33.297Z,37.80
2018-07-26T14:50:01.070Z,37.30
2018-07-26T14:52:28.672Z,36.80
2018-07-26T14:54:56.544Z,36.60
2018-07-26T14:57:24.196Z,36.50
2018-07-26T15:02:19.488Z,37.00
2018-07-26T15:04:47.113Z,37.50
2018-07-26T15:07:14.770Z,38.00
2018-07-26T15:09:42.676Z,38.80
2018-07-26T15:12:10.608Z,39.10
2018-07-26T15:14:38.337Z,39.70
2018-07-26T15:17:06.122Z,40.20
2018-07-26T15:19:33.867Z,40.40
2018-07-26T15:22:01.631Z,40.50
2018-07-26T15:24:30.685Z,40.70
2018-07-26T15:26:58.303Z,41.10
2018-07-26T15:29:25.957Z,41.20
2018-07-26T15:31:53.627Z,40.70
2018-07-26T15:34:21.257Z,39.70
2018-07-26T15:36:48.821Z,39.20
2018-07-26T15:39:16.435Z,39.30
2018-07-26T15:41:44.700Z,39.40
2018-07-26T15:44:13.754Z,39.50
2018-07-26T15:46:41.591Z,39.90
2018-07-26T15:49:09.553Z,40.30
2018-07-26T15:51:37.338Z,40.40
2018-07-26T15:54:05.049Z,40.60
2018-07-26T15:56:32.755Z,40.70
2018-07-26T15:59:00.387Z,40.50
2018-07-26T16:01:28.040Z,40.70
2018-07-26T16:03:55.799Z,40.50
2018-07-26T16:06:23.462Z,40.60
2018-07-26T16:08:51.146Z,40.70
2018-07-26T16:11:18.796Z,41.10
2018-07-26T16:13:46.468Z,41.10
2018-07-26T16:16:14.099Z,41.20
2018-07-26T16:18:41.730Z,41.30
2018-07-26T16:21:09.474Z,41.30
2018-07-26T16:23:37.129Z,41.20
2018-07-26T16:26:05.097Z,41.10
2018-07-26T16:28:32.851Z,41.30
2018-07-26T16:31:00.545Z,41.70
2018-07-26T16:33:28.217Z,41.90
2018-07-26T16:35:55.989Z,41.90
2018-07-26T16:38:23.726Z,41.90
2018-07-26T16:40:51.577Z,41.70
2018-07-26T16:43:19.293Z,41.50
2018-07-26T16:45:46.995Z,41.00
2018-07-26T16:48:14.682Z,40.80
2018-07-26T16:50:42.365Z,40.60
2018-07-26T16:53:10.029Z,40.60
2018-07-26T16:55:37.941Z,40.80
2018-07-26T16:58:05.761Z,40.90
2018-07-26T17:00:33.700Z,40.90
2018-07-26T17:03:01.468Z,40.70
2018-07-26T17:05:29.258Z,40.80
2018-07-26T17:07:57.034Z,40.70
2018-07-26T17:10:24.757Z,40.60
2018-07-26T17:12:52.465Z,40.50
2018-07-26T17:15:20.258Z,40.10
2018-07-26T17:17:48.026Z,40.20
2018-07-26T17:20:15.680Z,40.20
2018-07-26T17:22:43.476Z,40.00
2018-07-26T17:25:11.311Z,39.90
2018-07-26T17:27:38.934Z,39.50
2018-07-26T17:30:06.647Z,39.30
2018-07-26T17:32:34.423Z,39.30
2018-07-26T17:35:02.073Z,39.00
2018-07-26T17:43:22.809Z,38.40
2018-07-26T17:46:09.725Z,38.20
2018-07-26T17:48:37.519Z,37.80
2018-07-26T17:51:05.410Z,37.60
2018-07-26T17:53:33.175Z,37.50
2018-07-26T17:56:00.992Z,37.30
2018-07-26T17:58:28.652Z,37.30
2018-07-26T18:00:56.232Z,37.40
2018-07-26T18:03:24.178Z,37.30
2018-07-26T18:05:51.889Z,37.20
2018-07-26T18:08:19.752Z,37.00
2018-07-26T18:10:47.596Z,36.60
2018-07-26T18:13:15.176Z,36.60
2018-07-26T18:15:42.779Z,35.90
2018-07-26T18:18:10.401Z,35.40
2018-07-26T18:20:37.983Z,35.10
2018-07-26T18:23:05.715Z,34.80
2018-07-26T18:25:33.464Z,34.60
2018-07-26T18:28:01.044Z,34.30
2018-07-26T18:30:28.713Z,33.90
2018-07-26T18:32:56.412Z,33.80
2018-07-26T18:35:24.201Z,33.60
2018-07-26T18:40:19.685Z,33.10
2018-07-26T18:42:47.477Z,33.00
2018-07-26T18:45:15.499Z,32.90
2018-07-26T18:47:43.218Z,32.60
2018-07-26T18:50:11.179Z,32.50
2018-07-26T18:52:39.046Z,32.20
2018-07-26T18:55:08.605Z,32.00
2018-07-26T18:57:36.385Z,31.80
2018-07-26T19:00:06.801Z,31.60
2018-07-26T19:02:34.667Z,31.60
2018-07-26T19:05:03.457Z,31.40
2018-07-26T19:07:31.198Z,31.20
2018-07-26T19:09:58.817Z,31.20
2018-07-26T19:12:26.572Z,31.00
2018-07-26T19:14:54.219Z,30.90
2018-07-26T19:17:21.840Z,30.90
2018-07-26T19:19:49.494Z,30.80
2018-07-26T19:22:17.295Z,30.70
2018-07-26T19:24:44.991Z,30.70
2018-07-26T19:27:12.840Z,30.60
2018-07-26T19:29:40.528Z,30.40
2018-07-26T19:32:08.326Z,30.40
2018-07-26T19:34:36.005Z,30.40
2018-07-26T19:37:03.661Z,30.30
2018-07-26T19:39:31.358Z,30.10
2018-07-26T19:41:59.032Z,30.10
2018-07-26T19:44:26.696Z,30.00
2018-07-26T19:46:54.334Z,29.90
2018-07-26T19:49:22.131Z,29.80
2018-07-26T19:51:49.962Z,29.70
2018-07-26T19:54:17.675Z,29.70
2018-07-26T19:56:45.383Z,29.50
2018-07-26T19:59:13.028Z,29.50
2018-07-26T20:01:40.751Z,29.40
2018-07-26T20:04:08.803Z,29.40
2018-07-26T20:06:36.553Z,29.20
2018-07-26T20:09:07.934Z,29.20
2018-07-26T20:11:35.642Z,29.20
2018-07-26T20:14:03.519Z,29.10
2018-07-26T20:16:31.183Z,29.10
2018-07-26T20:18:58.931Z,29.00
2018-07-26T20:21:26.711Z,28.90
2018-07-26T20:23:54.367Z,28.80
2018-07-26T20:26:22.147Z,28.70
2018-07-26T20:28:49.824Z,28.60
2018-07-26T20:31:17.530Z,28.40
2018-07-26T20:33:45.186Z,28.40
2018-07-26T20:36:12.876Z,28.30
2018-07-26T20:38:40.554Z,28.30
2018-07-26T20:41:08.250Z,28.20
2018-07-26T20:43:35.927Z,28.20
2018-07-26T20:46:03.682Z,28.10
2018-07-26T20:48:31.450Z,28.00
2018-07-26T20:50:59.223Z,27.90
2018-07-26T20:53:27.434Z,27.80
2018-07-26T20:55:55.159Z,27.70
2018-07-26T20:58:22.786Z,27.60
2018-07-26T21:00:50.630Z,27.50
2018-07-26T21:03:18.364Z,27.40
2018-07-26T21:05:46.126Z,27.40
2018-07-26T21:08:13.928Z,27.30
2018-07-26T21:10:41.590Z,27.20
2018-07-26T21:13:09.670Z,27.10
2018-07-26T21:15:37.349Z,27.00
2018-07-26T21:18:05.072Z,26.90
2018-07-26T21:20:32.734Z,26.80
2018-07-26T21:23:00.376Z,26.70
2018-07-26T21:25:28.076Z,26.60
2018-07-26T21:27:55.699Z,26.40
2018-07-26T21:30:23.333Z,26.30
2018-07-26T21:32:50.978Z,26.30
2018-07-26T21:35:18.597Z,26.10
2018-07-26T21:37:46.209Z,26.10
2018-07-26T21:40:13.919Z,26.00
2018-07-26T21:42:41.498Z,26.10
2018-07-26T21:45:09.194Z,26.00
2018-07-26T21:47:36.821Z,26.00
2018-07-26T21:50:04.753Z,26.10
2018-07-26T21:52:32.412Z,26.10
2018-07-26T21:55:00.109Z,26.00
2018-07-26T21:57:27.971Z,26.00
2018-07-26T21:59:55.554Z,25.90
2018-07-26T22:02:23.243Z,25.80
2018-07-26T22:04:50.875Z,25.70
2018-07-26T22:07:18.561Z,25.60
2018-07-26T22:09:46.138Z,25.50
2018-07-26T22:12:13.718Z,25.50
2018-07-26T22:14:41.332Z,25.40
2018-07-26T22:17:09.032Z,25.20
2018-07-26T22:19:36.648Z,25.10
2018-07-26T22:22:04.440Z,25.10
2018-07-26T22:24:32.024Z,25.10
2018-07-26T22:26:59.660Z,25.00
2018-07-26T22:29:27.370Z,25.00
2018-07-26T22:31:54.999Z,24.90
2018-07-26T22:34:22.581Z,24.90
2018-07-26T22:36:50.178Z,24.80
2018-07-26T22:39:17.816Z,24.70
2018-07-26T22:41:45.409Z,24.70
2018-07-26T22:44:13.065Z,24.60
2018-07-26T22:46:40.639Z,24.70
2018-07-26T22:49:08.226Z,24.60
2018-07-26T22:51:35.850Z,24.40
2018-07-26T22:54:03.852Z,24.40
2018-07-26T22:56:31.898Z,24.40
2018-07-26T23:01:27.084Z,24.10
2018-07-26T23:03:54.662Z,24.10
2018-07-26T23:06:22.251Z,24.00
2018-07-26T23:08:49.878Z,23.90
2018-07-26T23:11:17.465Z,23.80
2018-07-26T23:13:45.037Z,23.70
2018-07-26T23:16:12.572Z,23.70
2018-07-26T23:18:40.066Z,23.80
2018-07-26T23:21:07.585Z,23.80
2018-07-26T23:26:02.712Z,23.70
2018-07-26T23:28:30.252Z,23.60
2018-07-26T23:30:57.869Z,23.70
2018-07-26T23:33:25.458Z,23.70
2018-07-26T23:35:53.015Z,23.70
2018-07-26T23:38:20.596Z,23.60
2018-07-26T23:40:48.170Z,23.60
2018-07-26T23:43:15.812Z,23.50
2018-07-26T23:45:43.412Z,23.60
2018-07-26T23:48:11.000Z,23.60
2018-07-26T23:50:38.566Z,23.60
2018-07-26T23:53:06.122Z,23.40
2018-07-26T23:55:33.671Z,23.00
2018-07-26T23:58:01.411Z,22.90
